sensor_id;sensor_type;location;lat;lon;timestamp;temperature;humidity
55711;DHT22;41612;51.994;5.880;2022-12-01T00:01:15;7.60;83.60
55711;DHT22;41612;51.994;5.880;2022-12-01T00:03:41;7.60;83.60
55711;DHT22;41612;51.994;5.880;2022-12-01T00:06:10;7.50;83.70
55711;DHT22;41612;51.994;5.880;2022-12-01T00:08:36;7.50;83.70
55711;DHT22;41612;51.994;5.880;2022-12-01T00:11:07;7.50;83.60
55711;DHT22;41612;51.994;5.880;2022-12-01T00:13:33;7.60;83.70
55711;DHT22;41612;51.994;5.880;2022-12-01T00:16:14;7.60;83.60
55711;DHT22;41612;51.994;5.880;2022-12-01T00:18:40;7.60;83.60
55711;DHT22;41612;51.994;5.880;2022-12-01T00:21:12;7.60;83.50
55711;DHT22;41612;51.994;5.880;2022-12-01T00:23:37;7.60;83.60
55711;DHT22;41612;51.994;5.880;2022-12-01T00:26:04;7.50;83.70
55711;DHT22;41612;51.994;5.880;2022-12-01T00:28:30;7.50;83.70
55711;DHT22;41612;51.994;5.880;2022-12-01T00:30:56;7.50;83.70
55711;DHT22;41612;51.994;5.880;2022-12-01T00:33:21;7.60;83.70
55711;DHT22;41612;51.994;5.880;2022-12-01T00:35:47;7.50;83.70
55711;DHT22;41612;51.994;5.880;2022-12-01T00:38:13;7.50;83.70
55711;DHT22;41612;51.994;5.880;2022-12-01T00:40:39;7.50;83.70
55711;DHT22;41612;51.994;5.880;2022-12-01T00:43:04;7.50;83.70
55711;DHT22;41612;51.994;5.880;2022-12-01T00:45:30;7.50;83.70
55711;DHT22;41612;51.994;5.880;2022-12-01T00:47:56;7.50;83.70
55711;DHT22;41612;51.994;5.880;2022-12-01T00:50:21;7.50;83.70
55711;DHT22;41612;51.994;5.880;2022-12-01T00:52:47;7.50;83.70
55711;DHT22;41612;51.994;5.880;2022-12-01T00:55:13;7.50;83.70
55711;DHT22;41612;51.994;5.880;2022-12-01T00:57:38;7.50;83.70
55711;DHT22;41612;51.994;5.880;2022-12-01T01:00:04;7.50;83.70
55711;DHT22;41612;51.994;5.880;2022-12-01T01:02:30;7.50;83.60
55711;DHT22;41612;51.994;5.880;2022-12-01T01:04:56;7.50;83.60
55711;DHT22;41612;51.994;5.880;2022-12-01T01:07:22;7.50;83.60
55711;DHT22;41612;51.994;5.880;2022-12-01T01:09:47;7.50;83.60
55711;DHT22;41612;51.994;5.880;2022-12-01T01:12:13;7.50;83.60
55711;DHT22;41612;51.994;5.880;2022-12-01T01:14:39;7.50;83.50
55711;DHT22;41612;51.994;5.880;2022-12-01T01:17:04;7.50;83.60
55711;DHT22;41612;51.994;5.880;2022-12-01T01:19:30;7.50;83.60
55711;DHT22;41612;51.994;5.880;2022-12-01T01:21:56;7.50;83.60
55711;DHT22;41612;51.994;5.880;2022-12-01T01:24:21;7.50;83.60
55711;DHT22;41612;51.994;5.880;2022-12-01T01:26:47;7.50;83.60
55711;DHT22;41612;51.994;5.880;2022-12-01T01:29:13;7.50;83.70
55711;DHT22;41612;51.994;5.880;2022-12-01T01:31:38;7.50;83.60
55711;DHT22;41612;51.994;5.880;2022-12-01T01:34:05;7.50;83.60
55711;DHT22;41612;51.994;5.880;2022-12-01T01:36:31;7.50;83.60
55711;DHT22;41612;51.994;5.880;2022-12-01T01:38:57;7.50;83.60
55711;DHT22;41612;51.994;5.880;2022-12-01T01:41:23;7.50;83.50
55711;DHT22;41612;51.994;5.880;2022-12-01T01:43:51;7.50;83.50
55711;DHT22;41612;51.994;5.880;2022-12-01T01:46:22;7.50;83.60
55711;DHT22;41612;51.994;5.880;2022-12-01T01:48:52;7.50;83.60
55711;DHT22;41612;51.994;5.880;2022-12-01T01:51:22;7.50;83.70
55711;DHT22;41612;51.994;5.880;2022-12-01T01:53:52;7.40;83.70
55711;DHT22;41612;51.994;5.880;2022-12-01T01:56:19;7.50;83.80
55711;DHT22;41612;51.994;5.880;2022-12-01T01:58:46;7.40;83.80
55711;DHT22;41612;51.994;5.880;2022-12-01T02:01:12;7.40;83.80
55711;DHT22;41612;51.994;5.880;2022-12-01T02:03:38;7.40;83.80
55711;DHT22;41612;51.994;5.880;2022-12-01T02:06:08;7.40;83.80
55711;DHT22;41612;51.994;5.880;2022-12-01T02:08:36;7.30;83.80
55711;DHT22;41612;51.994;5.880;2022-12-01T02:22:55;7.40;84.00
55711;DHT22;41612;51.994;5.880;2022-12-01T02:25:46;7.40;84.10
55711;DHT22;41612;51.994;5.880;2022-12-01T02:30:49;7.30;84.10
55711;DHT22;41612;51.994;5.880;2022-12-01T02:33:24;7.30;84.00
55711;DHT22;41612;51.994;5.880;2022-12-01T02:36:15;7.40;84.00
55711;DHT22;41612;51.994;5.880;2022-12-01T02:39:03;7.40;83.80
55711;DHT22;41612;51.994;5.880;2022-12-01T02:41:51;7.40;83.80
55711;DHT22;41612;51.994;5.880;2022-12-01T02:47:10;7.40;83.80
55711;DHT22;41612;51.994;5.880;2022-12-01T02:49:40;7.40;83.80
55711;DHT22;41612;51.994;5.880;2022-12-01T02:52:09;7.50;83.70
55711;DHT22;41612;51.994;5.880;2022-12-01T02:54:35;7.50;83.70
55711;DHT22;41612;51.994;5.880;2022-12-01T02:57:02;7.40;83.60
55711;DHT22;41612;51.994;5.880;2022-12-01T02:59:27;7.50;83.60
55711;DHT22;41612;51.994;5.880;2022-12-01T03:02:10;7.50;83.60
55711;DHT22;41612;51.994;5.880;2022-12-01T03:13:00;7.50;83.50
55711;DHT22;41612;51.994;5.880;2022-12-01T03:15:54;7.50;83.50
55711;DHT22;41612;51.994;5.880;2022-12-01T03:18:47;7.50;83.50
55711;DHT22;41612;51.994;5.880;2022-12-01T03:21:30;7.50;83.50
55711;DHT22;41612;51.994;5.880;2022-12-01T03:24:01;7.50;83.50
55711;DHT22;41612;51.994;5.880;2022-12-01T03:26:30;7.50;83.60
55711;DHT22;41612;51.994;5.880;2022-12-01T03:29:07;7.40;83.50
55711;DHT22;41612;51.994;5.880;2022-12-01T03:31:37;7.50;83.50
55711;DHT22;41612;51.994;5.880;2022-12-01T03:37:01;7.50;83.40
55711;DHT22;41612;51.994;5.880;2022-12-01T03:39:32;7.50;83.50
55711;DHT22;41612;51.994;5.880;2022-12-01T03:42:14;7.50;83.40
55711;DHT22;41612;51.994;5.880;2022-12-01T03:44:51;7.40;83.60
55711;DHT22;41612;51.994;5.880;2022-12-01T03:47:24;7.40;83.60
55711;DHT22;41612;51.994;5.880;2022-12-01T03:49:52;7.40;83.50
55711;DHT22;41612;51.994;5.880;2022-12-01T03:52:28;7.40;83.60
55711;DHT22;41612;51.994;5.880;2022-12-01T03:57:30;7.40;83.50
55711;DHT22;41612;51.994;5.880;2022-12-01T03:59:57;7.50;83.50
55711;DHT22;41612;51.994;5.880;2022-12-01T04:02:23;7.50;83.50
55711;DHT22;41612;51.994;5.880;2022-12-01T04:04:52;7.50;83.50
55711;DHT22;41612;51.994;5.880;2022-12-01T04:07:19;7.40;83.50
55711;DHT22;41612;51.994;5.880;2022-12-01T04:09:45;7.40;83.50
55711;DHT22;41612;51.994;5.880;2022-12-01T04:12:13;7.40;83.50
55711;DHT22;41612;51.994;5.880;2022-12-01T04:14:55;7.40;83.50
55711;DHT22;41612;51.994;5.880;2022-12-01T04:17:21;7.40;83.60
55711;DHT22;41612;51.994;5.880;2022-12-01T04:19:47;7.40;83.50
55711;DHT22;41612;51.994;5.880;2022-12-01T04:22:12;7.40;83.50
55711;DHT22;41612;51.994;5.880;2022-12-01T04:24:38;7.40;83.50
55711;DHT22;41612;51.994;5.880;2022-12-01T04:27:04;7.40;83.40
55711;DHT22;41612;51.994;5.880;2022-12-01T04:29:29;7.40;83.40
55711;DHT22;41612;51.994;5.880;2022-12-01T04:31:55;7.40;83.40
55711;DHT22;41612;51.994;5.880;2022-12-01T04:34:21;7.40;83.40
55711;DHT22;41612;51.994;5.880;2022-12-01T04:36:46;7.40;83.50
55711;DHT22;41612;51.994;5.880;2022-12-01T04:39:12;7.40;83.50
55711;DHT22;41612;51.994;5.880;2022-12-01T04:41:38;7.40;83.50
55711;DHT22;41612;51.994;5.880;2022-12-01T04:44:03;7.40;83.60
55711;DHT22;41612;51.994;5.880;2022-12-01T04:46:29;7.40;83.60
55711;DHT22;41612;51.994;5.880;2022-12-01T04:48:55;7.40;83.60
55711;DHT22;41612;51.994;5.880;2022-12-01T04:51:21;7.30;83.50
55711;DHT22;41612;51.994;5.880;2022-12-01T04:53:47;7.30;83.70
55711;DHT22;41612;51.994;5.880;2022-12-01T04:56:13;7.30;83.80
55711;DHT22;41612;51.994;5.880;2022-12-01T04:58:39;7.30;83.80
55711;DHT22;41612;51.994;5.880;2022-12-01T05:01:07;7.30;83.90
55711;DHT22;41612;51.994;5.880;2022-12-01T05:03:39;7.30;83.80
55711;DHT22;41612;51.994;5.880;2022-12-01T05:06:13;7.20;83.90
55711;DHT22;41612;51.994;5.880;2022-12-01T05:08:39;7.20;84.00
55711;DHT22;41612;51.994;5.880;2022-12-01T05:11:06;7.20;84.30
55711;DHT22;41612;51.994;5.880;2022-12-01T05:13:35;7.10;84.50
55711;DHT22;41612;51.994;5.880;2022-12-01T05:16:05;7.00;84.70
55711;DHT22;41612;51.994;5.880;2022-12-01T05:18:32;6.90;84.90
55711;DHT22;41612;51.994;5.880;2022-12-01T05:20:57;6.90;85.20
55711;DHT22;41612;51.994;5.880;2022-12-01T05:23:28;6.80;85.30
55711;DHT22;41612;51.994;5.880;2022-12-01T05:25:54;6.80;85.50
55711;DHT22;41612;51.994;5.880;2022-12-01T05:28:21;6.70;85.60
55711;DHT22;41612;51.994;5.880;2022-12-01T05:30:48;6.70;85.70
55711;DHT22;41612;51.994;5.880;2022-12-01T05:33:14;6.80;85.70
55711;DHT22;41612;51.994;5.880;2022-12-01T05:35:40;6.80;85.60
55711;DHT22;41612;51.994;5.880;2022-12-01T05:38:06;6.80;85.50
55711;DHT22;41612;51.994;5.880;2022-12-01T05:40:32;6.80;85.40
55711;DHT22;41612;51.994;5.880;2022-12-01T05:42:58;6.80;85.40
55711;DHT22;41612;51.994;5.880;2022-12-01T05:45:24;6.90;85.20
55711;DHT22;41612;51.994;5.880;2022-12-01T05:48:00;6.90;85.10
55711;DHT22;41612;51.994;5.880;2022-12-01T05:50:28;6.90;85.00
55711;DHT22;41612;51.994;5.880;2022-12-01T05:52:54;6.90;85.00
55711;DHT22;41612;51.994;5.880;2022-12-01T05:55:20;6.90;85.00
55711;DHT22;41612;51.994;5.880;2022-12-01T05:57:46;6.90;85.10
55711;DHT22;41612;51.994;5.880;2022-12-01T06:00:12;6.90;85.10
55711;DHT22;41612;51.994;5.880;2022-12-01T06:02:41;6.80;85.20
55711;DHT22;41612;51.994;5.880;2022-12-01T06:05:08;6.80;85.20
55711;DHT22;41612;51.994;5.880;2022-12-01T06:07:34;6.70;85.30
55711;DHT22;41612;51.994;5.880;2022-12-01T06:10:00;6.70;85.50
55711;DHT22;41612;51.994;5.880;2022-12-01T06:12:26;6.70;85.70
55711;DHT22;41612;51.994;5.880;2022-12-01T06:14:52;6.60;85.80
55711;DHT22;41612;51.994;5.880;2022-12-01T06:17:18;6.60;85.90
55711;DHT22;41612;51.994;5.880;2022-12-01T06:19:43;6.60;85.90
55711;DHT22;41612;51.994;5.880;2022-12-01T06:22:09;6.60;85.90
55711;DHT22;41612;51.994;5.880;2022-12-01T06:24:35;6.60;85.90
55711;DHT22;41612;51.994;5.880;2022-12-01T06:27:01;6.60;86.00
55711;DHT22;41612;51.994;5.880;2022-12-01T06:29:27;6.50;86.10
55711;DHT22;41612;51.994;5.880;2022-12-01T06:31:52;6.60;86.10
55711;DHT22;41612;51.994;5.880;2022-12-01T06:34:18;6.50;86.00
55711;DHT22;41612;51.994;5.880;2022-12-01T06:36:44;6.60;86.10
55711;DHT22;41612;51.994;5.880;2022-12-01T06:39:10;6.50;86.00
55711;DHT22;41612;51.994;5.880;2022-12-01T06:41:36;6.60;86.00
55711;DHT22;41612;51.994;5.880;2022-12-01T06:44:02;6.60;85.90
55711;DHT22;41612;51.994;5.880;2022-12-01T06:46:28;6.60;85.90
55711;DHT22;41612;51.994;5.880;2022-12-01T06:48:54;6.60;85.80
55711;DHT22;41612;51.994;5.880;2022-12-01T06:51:19;6.60;85.70
55711;DHT22;41612;51.994;5.880;2022-12-01T06:53:45;6.70;85.60
55711;DHT22;41612;51.994;5.880;2022-12-01T06:56:11;6.70;85.50
55711;DHT22;41612;51.994;5.880;2022-12-01T06:58:36;6.70;85.50
55711;DHT22;41612;51.994;5.880;2022-12-01T07:01:09;6.70;85.50
55711;DHT22;41612;51.994;5.880;2022-12-01T07:03:35;6.70;85.50
55711;DHT22;41612;51.994;5.880;2022-12-01T07:06:01;6.70;85.50
55711;DHT22;41612;51.994;5.880;2022-12-01T07:08:28;6.70;85.40
55711;DHT22;41612;51.994;5.880;2022-12-01T07:11:07;6.70;85.40
55711;DHT22;41612;51.994;5.880;2022-12-01T07:13:33;6.70;85.20
55711;DHT22;41612;51.994;5.880;2022-12-01T07:16:01;6.70;85.10
55711;DHT22;41612;51.994;5.880;2022-12-01T07:18:27;6.80;85.00
55711;DHT22;41612;51.994;5.880;2022-12-01T07:20:53;6.80;84.90
55711;DHT22;41612;51.994;5.880;2022-12-01T07:23:18;6.80;84.70
55711;DHT22;41612;51.994;5.880;2022-12-01T07:25:45;6.90;84.60
55711;DHT22;41612;51.994;5.880;2022-12-01T07:28:11;6.90;84.50
55711;DHT22;41612;51.994;5.880;2022-12-01T07:30:37;6.90;84.40
55711;DHT22;41612;51.994;5.880;2022-12-01T07:33:03;6.90;84.40
55711;DHT22;41612;51.994;5.880;2022-12-01T07:35:28;7.00;84.30
55711;DHT22;41612;51.994;5.880;2022-12-01T07:37:57;6.90;84.30
55711;DHT22;41612;51.994;5.880;2022-12-01T07:40:26;6.90;84.30
55711;DHT22;41612;51.994;5.880;2022-12-01T07:42:51;6.90;84.30
55711;DHT22;41612;51.994;5.880;2022-12-01T07:45:17;6.90;84.20
55711;DHT22;41612;51.994;5.880;2022-12-01T07:47:43;6.90;84.20
55711;DHT22;41612;51.994;5.880;2022-12-01T07:50:09;6.90;84.10
55711;DHT22;41612;51.994;5.880;2022-12-01T07:52:35;7.00;84.00
55711;DHT22;41612;51.994;5.880;2022-12-01T07:55:01;7.00;83.90
55711;DHT22;41612;51.994;5.880;2022-12-01T07:57:26;7.00;83.90
55711;DHT22;41612;51.994;5.880;2022-12-01T07:59:52;7.00;83.90
55711;DHT22;41612;51.994;5.880;2022-12-01T08:02:18;7.00;83.80
55711;DHT22;41612;51.994;5.880;2022-12-01T08:18:06;7.00;83.70
55711;DHT22;41612;51.994;5.880;2022-12-01T08:20:32;7.10;83.60
55711;DHT22;41612;51.994;5.880;2022-12-01T08:23:02;7.10;83.50
55711;DHT22;41612;51.994;5.880;2022-12-01T08:25:28;7.10;83.50
55711;DHT22;41612;51.994;5.880;2022-12-01T08:27:55;7.20;83.30
55711;DHT22;41612;51.994;5.880;2022-12-01T08:30:21;7.20;83.10
55711;DHT22;41612;51.994;5.880;2022-12-01T08:32:47;7.20;83.00
55711;DHT22;41612;51.994;5.880;2022-12-01T08:35:13;7.20;83.00
55711;DHT22;41612;51.994;5.880;2022-12-01T08:37:39;7.20;82.90
55711;DHT22;41612;51.994;5.880;2022-12-01T08:40:06;7.20;82.80
55711;DHT22;41612;51.994;5.880;2022-12-01T08:42:31;7.30;82.80
55711;DHT22;41612;51.994;5.880;2022-12-01T08:44:57;7.30;82.70
55711;DHT22;41612;51.994;5.880;2022-12-01T08:47:23;7.30;82.60
55711;DHT22;41612;51.994;5.880;2022-12-01T08:49:49;7.30;82.50
55711;DHT22;41612;51.994;5.880;2022-12-01T08:52:15;7.30;82.50
55711;DHT22;41612;51.994;5.880;2022-12-01T08:54:40;7.40;82.40
55711;DHT22;41612;51.994;5.880;2022-12-01T08:57:06;7.40;82.40
55711;DHT22;41612;51.994;5.880;2022-12-01T08:59:32;7.40;82.30
55711;DHT22;41612;51.994;5.880;2022-12-01T09:01:58;7.50;82.30
55711;DHT22;41612;51.994;5.880;2022-12-01T09:04:25;7.50;82.10
55711;DHT22;41612;51.994;5.880;2022-12-01T09:06:52;7.50;82.00
55711;DHT22;41612;51.994;5.880;2022-12-01T09:09:24;7.50;82.00
55711;DHT22;41612;51.994;5.880;2022-12-01T09:11:51;7.50;82.00
55711;DHT22;41612;51.994;5.880;2022-12-01T09:14:17;7.50;81.90
55711;DHT22;41612;51.994;5.880;2022-12-01T09:16:45;7.60;81.70
55711;DHT22;41612;51.994;5.880;2022-12-01T09:19:12;7.60;81.60
55711;DHT22;41612;51.994;5.880;2022-12-01T09:21:39;7.60;81.50
55711;DHT22;41612;51.994;5.880;2022-12-01T09:24:06;7.70;81.40
55711;DHT22;41612;51.994;5.880;2022-12-01T09:26:32;7.80;81.20
55711;DHT22;41612;51.994;5.880;2022-12-01T09:29:09;7.80;80.90
55711;DHT22;41612;51.994;5.880;2022-12-01T09:31:36;7.90;80.70
55711;DHT22;41612;51.994;5.880;2022-12-01T09:34:04;7.90;80.50
55711;DHT22;41612;51.994;5.880;2022-12-01T09:36:32;8.00;80.30
55711;DHT22;41612;51.994;5.880;2022-12-01T09:38:58;8.00;80.30
55711;DHT22;41612;51.994;5.880;2022-12-01T09:41:33;8.00;80.30
55711;DHT22;41612;51.994;5.880;2022-12-01T09:44:02;8.00;80.20
55711;DHT22;41612;51.994;5.880;2022-12-01T09:46:37;8.00;80.10
55711;DHT22;41612;51.994;5.880;2022-12-01T09:49:08;8.00;80.10
55711;DHT22;41612;51.994;5.880;2022-12-01T09:51:36;8.10;79.80
55711;DHT22;41612;51.994;5.880;2022-12-01T09:54:02;8.10;79.90
55711;DHT22;41612;51.994;5.880;2022-12-01T09:56:30;8.10;79.80
55711;DHT22;41612;51.994;5.880;2022-12-01T09:58:59;8.20;79.80
55711;DHT22;41612;51.994;5.880;2022-12-01T10:01:47;8.20;79.70
55711;DHT22;41612;51.994;5.880;2022-12-01T10:07:02;8.20;79.40
55711;DHT22;41612;51.994;5.880;2022-12-01T10:12:04;8.30;79.20
55711;DHT22;41612;51.994;5.880;2022-12-01T10:14:33;8.30;79.10
55711;DHT22;41612;51.994;5.880;2022-12-01T10:17:11;8.40;79.10
55711;DHT22;41612;51.994;5.880;2022-12-01T10:19:53;8.40;78.90
55711;DHT22;41612;51.994;5.880;2022-12-01T10:25:12;8.50;78.70
55711;DHT22;41612;51.994;5.880;2022-12-01T10:28:01;8.50;78.60
55711;DHT22;41612;51.994;5.880;2022-12-01T10:30:28;8.50;78.60
55711;DHT22;41612;51.994;5.880;2022-12-01T10:32:55;8.50;78.50
55711;DHT22;41612;51.994;5.880;2022-12-01T10:35:31;8.50;78.60
55711;DHT22;41612;51.994;5.880;2022-12-01T10:38:05;8.50;78.50
55711;DHT22;41612;51.994;5.880;2022-12-01T10:40:31;8.50;78.40
55711;DHT22;41612;51.994;5.880;2022-12-01T10:43:00;8.50;78.30
55711;DHT22;41612;51.994;5.880;2022-12-01T10:45:29;8.60;78.20
55711;DHT22;41612;51.994;5.880;2022-12-01T10:48:10;8.70;78.10
55711;DHT22;41612;51.994;5.880;2022-12-01T10:50:55;8.70;78.10
55711;DHT22;41612;51.994;5.880;2022-12-01T10:53:28;8.60;78.10
55711;DHT22;41612;51.994;5.880;2022-12-01T10:56:05;8.70;78.00
55711;DHT22;41612;51.994;5.880;2022-12-01T10:58:51;8.80;77.80
55711;DHT22;41612;51.994;5.880;2022-12-01T11:01:24;8.90;77.30
55711;DHT22;41612;51.994;5.880;2022-12-01T11:04:02;9.00;76.90
55711;DHT22;41612;51.994;5.880;2022-12-01T11:06:30;9.10;76.70
55711;DHT22;41612;51.994;5.880;2022-12-01T11:09:03;9.10;76.40
55711;DHT22;41612;51.994;5.880;2022-12-01T11:11:36;9.30;76.00
55711;DHT22;41612;51.994;5.880;2022-12-01T11:14:17;9.40;75.60
55711;DHT22;41612;51.994;5.880;2022-12-01T11:16:45;9.50;75.20
55711;DHT22;41612;51.994;5.880;2022-12-01T11:19:27;9.50;75.10
55711;DHT22;41612;51.994;5.880;2022-12-01T11:21:56;9.60;74.80
55711;DHT22;41612;51.994;5.880;2022-12-01T11:24:42;9.70;74.50
55711;DHT22;41612;51.994;5.880;2022-12-01T11:27:28;9.80;74.00
55711;DHT22;41612;51.994;5.880;2022-12-01T11:29:57;10.00;73.20
55711;DHT22;41612;51.994;5.880;2022-12-01T11:32:36;10.00;73.20
55711;DHT22;41612;51.994;5.880;2022-12-01T11:35:17;10.00;73.20
55711;DHT22;41612;51.994;5.880;2022-12-01T11:37:51;10.00;73.20
55711;DHT22;41612;51.994;5.880;2022-12-01T11:40:24;9.90;73.40
55711;DHT22;41612;51.994;5.880;2022-12-01T11:42:56;9.90;73.50
55711;DHT22;41612;51.994;5.880;2022-12-01T11:45:27;9.90;73.60
55711;DHT22;41612;51.994;5.880;2022-12-01T11:48:05;10.00;73.40
55711;DHT22;41612;51.994;5.880;2022-12-01T11:50:37;10.00;73.30
55711;DHT22;41612;51.994;5.880;2022-12-01T11:53:39;10.10;72.60
55711;DHT22;41612;51.994;5.880;2022-12-01T11:56:20;10.70;71.40
55711;DHT22;41612;51.994;5.880;2022-12-01T11:58:58;11.20;69.50
55711;DHT22;41612;51.994;5.880;2022-12-01T12:01:34;11.60;68.50
55711;DHT22;41612;51.994;5.880;2022-12-01T12:04:21;11.70;67.30
55711;DHT22;41612;51.994;5.880;2022-12-01T12:26:48;10.50;70.70
55711;DHT22;41612;51.994;5.880;2022-12-01T12:34:47;10.30;71.30
55711;DHT22;41612;51.994;5.880;2022-12-01T12:37:25;10.40;71.20
55711;DHT22;41612;51.994;5.880;2022-12-01T12:51:45;11.00;69.50
55711;DHT22;41612;51.994;5.880;2022-12-01T12:54:22;11.20;68.10
55711;DHT22;41612;51.994;5.880;2022-12-01T12:56:56;11.20;68.00
55711;DHT22;41612;51.994;5.880;2022-12-01T13:02:05;11.00;68.60
55711;DHT22;41612;51.994;5.880;2022-12-01T13:09:45;10.90;68.20
55711;DHT22;41612;51.994;5.880;2022-12-01T13:12:26;10.80;68.90
55711;DHT22;41612;51.994;5.880;2022-12-01T13:15:17;10.60;69.60
55711;DHT22;41612;51.994;5.880;2022-12-01T13:18:18;10.40;70.30
55711;DHT22;41612;51.994;5.880;2022-12-01T13:20:51;10.10;71.30
55711;DHT22;41612;51.994;5.880;2022-12-01T13:23:19;9.90;72.10
55711;DHT22;41612;51.994;5.880;2022-12-01T13:25:50;9.80;72.70
55711;DHT22;41612;51.994;5.880;2022-12-01T13:28:35;9.70;73.00
55711;DHT22;41612;51.994;5.880;2022-12-01T13:31:08;9.70;73.40
55711;DHT22;41612;51.994;5.880;2022-12-01T13:33:35;9.70;73.60
55711;DHT22;41612;51.994;5.880;2022-12-01T13:36:09;9.80;73.20
55711;DHT22;41612;51.994;5.880;2022-12-01T13:38:36;9.90;72.90
55711;DHT22;41612;51.994;5.880;2022-12-01T13:43:36;9.80;73.00
55711;DHT22;41612;51.994;5.880;2022-12-01T13:46:02;9.80;73.30
55711;DHT22;41612;51.994;5.880;2022-12-01T13:48:52;9.80;72.80
55711;DHT22;41612;51.994;5.880;2022-12-01T13:51:18;9.80;73.10
55711;DHT22;41612;51.994;5.880;2022-12-01T13:54:05;10.00;71.90
55711;DHT22;41612;51.994;5.880;2022-12-01T13:57:00;10.30;71.80
55711;DHT22;41612;51.994;5.880;2022-12-01T14:02:22;10.10;72.20
55711;DHT22;41612;51.994;5.880;2022-12-01T14:04:48;9.80;72.70
55711;DHT22;41612;51.994;5.880;2022-12-01T14:07:25;9.60;73.60
55711;DHT22;41612;51.994;5.880;2022-12-01T14:09:55;9.50;74.40
55711;DHT22;41612;51.994;5.880;2022-12-01T14:12:27;9.20;75.20
55711;DHT22;41612;51.994;5.880;2022-12-01T14:18:34;9.00;76.40
55711;DHT22;41612;51.994;5.880;2022-12-01T14:21:03;8.80;76.90
55711;DHT22;41612;51.994;5.880;2022-12-01T14:23:33;8.80;77.20
55711;DHT22;41612;51.994;5.880;2022-12-01T14:26:09;8.80;77.50
55711;DHT22;41612;51.994;5.880;2022-12-01T14:34:11;8.70;78.00
55711;DHT22;41612;51.994;5.880;2022-12-01T14:36:43;8.70;78.20
55711;DHT22;41612;51.994;5.880;2022-12-01T14:41:54;8.60;78.50
55711;DHT22;41612;51.994;5.880;2022-12-01T14:52:31;8.40;79.20
55711;DHT22;41612;51.994;5.880;2022-12-01T14:54:59;8.40;79.30
55711;DHT22;41612;51.994;5.880;2022-12-01T14:57:37;8.40;79.30
55711;DHT22;41612;51.994;5.880;2022-12-01T15:00:10;8.40;79.30
55711;DHT22;41612;51.994;5.880;2022-12-01T15:03:03;8.40;79.40
55711;DHT22;41612;51.994;5.880;2022-12-01T15:05:28;8.40;79.50
55711;DHT22;41612;51.994;5.880;2022-12-01T15:07:58;8.30;79.60
55711;DHT22;41612;51.994;5.880;2022-12-01T15:10:33;8.30;79.70
55711;DHT22;41612;51.994;5.880;2022-12-01T15:15:58;8.30;79.90
55711;DHT22;41612;51.994;5.880;2022-12-01T15:18:32;8.20;80.00
55711;DHT22;41612;51.994;5.880;2022-12-01T15:21:22;8.20;80.10
55711;DHT22;41612;51.994;5.880;2022-12-01T15:23:58;8.20;80.20
55711;DHT22;41612;51.994;5.880;2022-12-01T15:26:48;8.20;80.40
55711;DHT22;41612;51.994;5.880;2022-12-01T15:34:34;8.10;80.60
55711;DHT22;41612;51.994;5.880;2022-12-01T15:37:03;8.20;80.50
55711;DHT22;41612;51.994;5.880;2022-12-01T15:39:33;8.10;80.50
55711;DHT22;41612;51.994;5.880;2022-12-01T15:41:59;8.10;80.40
55711;DHT22;41612;51.994;5.880;2022-12-01T15:44:32;8.10;80.40
55711;DHT22;41612;51.994;5.880;2022-12-01T15:46:58;8.10;80.50
55711;DHT22;41612;51.994;5.880;2022-12-01T15:49:29;8.10;80.50
55711;DHT22;41612;51.994;5.880;2022-12-01T15:52:09;8.10;80.60
55711;DHT22;41612;51.994;5.880;2022-12-01T15:54:36;8.10;80.60
55711;DHT22;41612;51.994;5.880;2022-12-01T15:57:03;8.10;80.60
55711;DHT22;41612;51.994;5.880;2022-12-01T15:59:38;8.10;80.60
55711;DHT22;41612;51.994;5.880;2022-12-01T16:02:30;8.10;80.70
55711;DHT22;41612;51.994;5.880;2022-12-01T16:05:13;8.10;80.70
55711;DHT22;41612;51.994;5.880;2022-12-01T16:07:39;8.10;80.70
55711;DHT22;41612;51.994;5.880;2022-12-01T16:10:05;8.00;80.70
55711;DHT22;41612;51.994;5.880;2022-12-01T16:12:34;8.10;80.70
55711;DHT22;41612;51.994;5.880;2022-12-01T16:15:13;8.10;80.60
55711;DHT22;41612;51.994;5.880;2022-12-01T16:17:45;8.10;80.60
55711;DHT22;41612;51.994;5.880;2022-12-01T16:20:37;8.10;80.70
55711;DHT22;41612;51.994;5.880;2022-12-01T16:23:14;8.00;80.70
55711;DHT22;41612;51.994;5.880;2022-12-01T16:25:46;8.00;80.80
55711;DHT22;41612;51.994;5.880;2022-12-01T16:28:22;8.10;80.80
55711;DHT22;41612;51.994;5.880;2022-12-01T16:30:48;8.10;80.70
55711;DHT22;41612;51.994;5.880;2022-12-01T16:33:25;8.10;80.70
55711;DHT22;41612;51.994;5.880;2022-12-01T16:35:52;8.10;80.70
55711;DHT22;41612;51.994;5.880;2022-12-01T16:38:23;8.10;80.70
55711;DHT22;41612;51.994;5.880;2022-12-01T16:40:58;8.10;80.60
55711;DHT22;41612;51.994;5.880;2022-12-01T16:43:25;8.10;80.60
55711;DHT22;41612;51.994;5.880;2022-12-01T16:46:00;8.10;80.60
55711;DHT22;41612;51.994;5.880;2022-12-01T16:48:27;8.10;80.70
55711;DHT22;41612;51.994;5.880;2022-12-01T16:50:53;8.00;80.80
55711;DHT22;41612;51.994;5.880;2022-12-01T16:53:20;8.00;80.70
55711;DHT22;41612;51.994;5.880;2022-12-01T16:55:52;8.00;80.80
55711;DHT22;41612;51.994;5.880;2022-12-01T16:58:18;8.00;81.00
55711;DHT22;41612;51.994;5.880;2022-12-01T17:00:44;8.00;81.00
55711;DHT22;41612;51.994;5.880;2022-12-01T17:03:14;8.00;81.10
55711;DHT22;41612;51.994;5.880;2022-12-01T17:05:41;8.00;81.10
55711;DHT22;41612;51.994;5.880;2022-12-01T17:08:06;7.90;81.10
55711;DHT22;41612;51.994;5.880;2022-12-01T17:10:33;8.00;81.20
55711;DHT22;41612;51.994;5.880;2022-12-01T17:12:59;7.90;81.20
55711;DHT22;41612;51.994;5.880;2022-12-01T17:15:24;7.90;81.30
55711;DHT22;41612;51.994;5.880;2022-12-01T17:17:50;7.90;81.30
55711;DHT22;41612;51.994;5.880;2022-12-01T17:20:16;7.90;81.40
55711;DHT22;41612;51.994;5.880;2022-12-01T17:22:42;7.80;81.40
55711;DHT22;41612;51.994;5.880;2022-12-01T17:25:08;7.70;81.60
55711;DHT22;41612;51.994;5.880;2022-12-01T17:27:35;7.70;81.70
55711;DHT22;41612;51.994;5.880;2022-12-01T17:30:01;7.70;81.70
55711;DHT22;41612;51.994;5.880;2022-12-01T17:32:27;7.80;81.80
55711;DHT22;41612;51.994;5.880;2022-12-01T17:34:53;7.80;81.80
55711;DHT22;41612;51.994;5.880;2022-12-01T17:37:19;7.70;81.80
55711;DHT22;41612;51.994;5.880;2022-12-01T17:39:45;7.70;81.80
55711;DHT22;41612;51.994;5.880;2022-12-01T17:42:10;7.70;81.90
55711;DHT22;41612;51.994;5.880;2022-12-01T17:44:36;7.70;81.90
55711;DHT22;41612;51.994;5.880;2022-12-01T17:47:03;7.70;82.00
55711;DHT22;41612;51.994;5.880;2022-12-01T17:49:29;7.70;81.90
55711;DHT22;41612;51.994;5.880;2022-12-01T17:51:54;7.70;81.90
55711;DHT22;41612;51.994;5.880;2022-12-01T17:54:20;7.70;81.90
55711;DHT22;41612;51.994;5.880;2022-12-01T17:56:45;7.70;81.90
55711;DHT22;41612;51.994;5.880;2022-12-01T17:59:11;7.70;81.80
55711;DHT22;41612;51.994;5.880;2022-12-01T18:01:37;7.80;81.90
55711;DHT22;41612;51.994;5.880;2022-12-01T18:04:03;7.80;81.80
55711;DHT22;41612;51.994;5.880;2022-12-01T18:06:29;7.80;81.70
55711;DHT22;41612;51.994;5.880;2022-12-01T18:08:55;7.80;81.70
55711;DHT22;41612;51.994;5.880;2022-12-01T18:11:21;7.80;81.60
55711;DHT22;41612;51.994;5.880;2022-12-01T18:13:49;7.80;81.60